Time;durP1;ratioP1;P1;durP2;ratioP2;P2;SDS_P1;SDS_P2;PMS_P1;PMS_P2;Temp;Humidity;BMP_temperature;BMP_pressure;BME280_temperature;BME280_humidity;BME280_pressure;Samples;Min_cycle;Max_cycle;Signal;HPM_P1;HPM_P2
2023/09/15 00:01:20;;;;;;;6.03;4.65;;;21.80;99.90;;;;;;5092310;28;20036;-55
2023/09/15 00:03:46;;;;;;;8.80;4.18;;;22.00;99.90;;;;;;5092112;28;20044;-52
2023/09/15 00:06:12;;;;;;;5.47;4.60;;;22.00;99.90;;;;;;5039082;28;20083;-55
2023/09/15 00:08:38;;;;;;;5.97;4.30;;;22.00;99.90;;;;;;5092153;28;20067;-54
2023/09/15 00:11:03;;;;;;;5.45;4.18;;;21.90;99.90;;;;;;5092083;28;20036;-54
2023/09/15 00:13:31;;;;;;;6.15;4.30;;;;;;;;;;5091924;28;20032;-54
2023/09/15 00:15:58;;;;;;;6.20;4.35;;;21.80;99.90;;;;;;5092413;28;20020;-52
2023/09/15 00:18:25;;;;;;;4.95;4.45;;;22.00;99.90;;;;;;5090582;28;20107;-52
2023/09/15 00:20:51;;;;;;;6.25;4.38;;;22.00;99.90;;;;;;5091809;28;20066;-54
2023/09/15 00:23:17;;;;;;;7.18;4.68;;;21.90;99.90;;;;;;5092117;28;20522;-51
2023/09/15 00:25:45;;;;;;;7.18;4.28;;;22.00;99.90;;;;;;5040004;28;20027;-55
2023/09/15 00:28:13;;;;;;;4.93;4.22;;;22.00;99.90;;;;;;5090176;28;20032;-52
2023/09/15 00:30:39;;;;;;;7.40;4.15;;;22.00;99.90;;;;;;5089765;28;20479;-51
2023/09/15 00:33:05;;;;;;;5.00;4.18;;;22.10;99.90;;;;;;5029394;28;20041;-54
2023/09/15 00:35:31;;;;;;;6.78;4.60;;;22.00;99.90;;;;;;5029462;28;20033;-53
2023/09/15 00:37:57;;;;;;;9.05;4.55;;;21.80;99.90;;;;;;5012873;28;20091;-52
2023/09/15 00:40:24;;;;;;;7.63;4.55;;;;;;;;;;5012475;28;20041;-52
2023/09/15 00:42:51;;;;;;;5.25;4.38;;;21.90;99.90;;;;;;5029122;28;20041;-54
2023/09/15 00:45:21;;;;;;;5.50;4.38;;;21.90;99.90;;;;;;5029364;28;20068;-52
2023/09/15 00:47:55;;;;;;;5.38;4.30;;;21.90;99.90;;;;;;5029208;28;20076;-53
2023/09/15 00:50:23;;;;;;;6.93;4.68;;;;;;;;;;5029059;28;20025;-51
2023/09/15 00:52:51;;;;;;;5.50;4.05;;;;;;;;;;5029104;28;20061;-52
2023/09/15 00:55:19;;;;;;;6.53;3.88;;;;;;;;;;5029194;28;20021;-54
2023/09/15 00:57:46;;;;;;;5.50;4.03;;;;;;;;;;5032306;28;20032;-55
2023/09/15 01:00:14;;;;;;;6.68;4.25;;;21.80;99.90;;;;;;5033287;28;20048;-54
2023/09/15 01:02:42;;;;;;;5.75;4.80;;;21.80;99.90;;;;;;5033361;28;20033;-52
2023/09/15 01:05:19;;;;;;;5.15;4.40;;;;;;;;;;5092147;28;20052;-55
2023/09/15 01:07:47;;;;;;;10.05;4.95;;;21.60;99.90;;;;;;5095955;28;20024;-53
2023/09/15 01:10:14;;;;;;;15.35;5.50;;;21.60;99.90;;;;;;5095988;28;20024;-54
2023/09/15 01:12:41;;;;;;;4.82;4.32;;;21.70;99.90;;;;;;5093581;28;20035;-52
2023/09/15 01:15:07;;;;;;;6.38;4.40;;;21.70;99.90;;;;;;5095597;28;20024;-54
2023/09/15 01:17:57;;;;;;;6.05;4.68;;;21.70;99.90;;;;;;5072338;28;20403;-54
2023/09/15 01:20:25;;;;;;;8.73;4.65;;;21.60;99.90;;;;;;5092505;28;20065;-54
2023/09/15 01:23:18;;;;;;;5.82;4.53;;;21.60;99.90;;;;;;5094948;28;20059;-52
2023/09/15 01:25:53;;;;;;;8.07;4.80;;;21.70;99.90;;;;;;5094349;28;20020;-52
2023/09/15 01:28:37;;;;;;;5.65;4.47;;;21.80;99.90;;;;;;5057794;28;20047;-52
2023/09/15 01:31:04;;;;;;;7.72;5.20;;;21.80;99.90;;;;;;5079494;28;20032;-55
2023/09/15 01:33:30;;;;;;;7.68;4.75;;;21.80;99.90;;;;;;5093196;28;20111;-53
2023/09/15 01:35:56;;;;;;;5.38;4.43;;;21.90;99.90;;;;;;5095278;28;20020;-54
2023/09/15 01:38:22;;;;;;;7.03;4.63;;;21.80;99.90;;;;;;5042481;28;20035;-53
2023/09/15 01:40:48;;;;;;;7.35;4.75;;;21.90;99.90;;;;;;5095103;28;20039;-54
2023/09/15 01:43:13;;;;;;;6.43;4.70;;;21.90;99.90;;;;;;5095484;28;20119;-53
2023/09/15 01:45:39;;;;;;;4.95;4.43;;;21.80;99.90;;;;;;5009651;28;20036;-52
2023/09/15 01:48:06;;;;;;;9.02;5.00;;;;;;;;;;5082268;28;20392;-51
2023/09/15 01:50:33;;;;;;;5.18;4.68;;;21.90;99.90;;;;;;5088792;28;20028;-53
2023/09/15 01:52:59;;;;;;;4.80;4.40;;;21.50;99.90;;;;;;5062054;28;20475;-52
2023/09/15 01:55:26;;;;;;;6.03;5.40;;;21.40;99.90;;;;;;5059229;28;20062;-54
2023/09/15 01:57:53;;;;;;;7.30;5.20;;;21.40;99.90;;;;;;5094358;28;20012;-55
2023/09/15 02:00:18;;;;;;;5.18;4.63;;;21.20;99.90;;;;;;5085610;28;20151;-51
2023/09/15 02:02:44;;;;;;;5.38;4.88;;;21.30;99.90;;;;;;5068898;28;20469;-54
2023/09/15 02:05:23;;;;;;;7.15;4.85;;;21.30;99.90;;;;;;5091131;28;20028;-55
2023/09/15 02:07:49;;;;;;;6.28;5.10;;;21.40;99.90;;;;;;5092891;28;20042;-52
2023/09/15 02:10:14;;;;;;;5.90;5.10;;;21.40;99.90;;;;;;5094495;28;20393;-55
2023/09/15 02:12:40;;;;;;;6.55;5.15;;;21.40;99.90;;;;;;5094509;28;20046;-55
2023/09/15 02:15:07;;;;;;;6.53;4.75;;;21.50;99.90;;;;;;5094281;28;20031;-52
2023/09/15 02:17:33;;;;;;;10.75;4.95;;;21.50;99.90;;;;;;5094550;28;20038;-55
2023/09/15 02:19:58;;;;;;;5.75;4.63;;;21.60;99.90;;;;;;5058803;28;20377;-55
2023/09/15 02:22:25;;;;;;;6.78;4.95;;;21.60;99.90;;;;;;5094109;28;20143;-52
2023/09/15 02:24:51;;;;;;;6.72;4.53;;;21.60;99.90;;;;;;5094290;28;20023;-52
2023/09/15 02:27:17;;;;;;;6.03;4.57;;;21.60;99.90;;;;;;5094402;28;20028;-54
2023/09/15 02:29:42;;;;;;;5.82;4.40;;;21.60;99.90;;;;;;5041915;28;20402;-53
2023/09/15 02:32:08;;;;;;;8.60;4.68;;;21.60;99.90;;;;;;5093903;28;20099;-54
2023/09/15 02:34:34;;;;;;;8.73;4.82;;;21.60;99.90;;;;;;5094007;28;20383;-52
2023/09/15 02:37:00;;;;;;;6.38;4.85;;;21.60;99.90;;;;;;5094000;28;20020;-54
2023/09/15 02:39:25;;;;;;;10.05;5.43;;;21.60;99.90;;;;;;5038239;28;20033;-55
2023/09/15 02:41:51;;;;;;;6.50;4.82;;;21.60;99.90;;;;;;5041271;28;20036;-54
2023/09/15 02:44:17;;;;;;;7.43;5.10;;;21.60;99.90;;;;;;5093658;28;20127;-52
2023/09/15 02:46:42;;;;;;;7.28;5.00;;;21.70;99.90;;;;;;5094346;28;20063;-52
2023/09/15 02:49:09;;;;;;;6.65;5.30;;;21.60;99.90;;;;;;5093761;28;20020;-53
2023/09/15 02:51:37;;;;;;;5.70;4.55;;;21.60;99.90;;;;;;5093934;28;20096;-54
2023/09/15 02:54:03;;;;;;;7.85;4.80;;;21.50;99.90;;;;;;5093565;28;20031;-53
2023/09/15 02:56:29;;;;;;;8.70;4.90;;;;;;;;;;5093727;28;20028;-52
2023/09/15 02:58:55;;;;;;;6.97;5.43;;;;;;;;;;5059966;28;20530;-54
2023/09/15 03:01:21;;;;;;;5.38;4.88;;;21.30;99.90;;;;;;5093098;28;20027;-52
2023/09/15 03:03:49;;;;;;;8.32;5.32;;;21.40;99.90;;;;;;5092418;28;20031;-54
2023/09/15 03:06:15;;;;;;;9.38;5.45;;;;;;;;;;5039896;28;20443;-55
2023/09/15 03:08:41;;;;;;;6.53;5.55;;;;;;;;;;5083922;28;20027;-52
2023/09/15 03:11:16;;;;;;;5.75;5.13;;;;;;;;;;5092290;28;20121;-54
2023/09/15 03:13:42;;;;;;;6.47;5.35;;;;;;;;;;5091374;28;20032;-54
2023/09/15 03:16:12;;;;;;;11.05;5.50;;;;;;;;;;5093280;28;20110;-54
2023/09/15 03:18:39;;;;;;;6.95;5.68;;;;;;;;;;5093485;28;20396;-53
2023/09/15 03:21:05;;;;;;;6.93;5.32;;;;;;;;;;5091776;28;20035;-55
2023/09/15 03:23:31;;;;;;;8.13;5.13;;;;;;;;;;5093221;28;20059;-54
2023/09/15 03:26:01;;;;;;;5.80;5.30;;;;;;;;;;5093104;28;20016;-52
2023/09/15 03:28:27;;;;;;;6.63;5.32;;;;;;;;;;5091300;28;20032;-51
2023/09/15 03:30:53;;;;;;;8.95;5.45;;;;;;;;;;5092873;28;20031;-53
2023/09/15 03:33:19;;;;;;;6.38;5.72;;;;;;;;;;5092771;28;20024;-55
2023/09/15 03:35:46;;;;;;;5.25;4.78;;;;;;;;;;5069937;28;20043;-55
2023/09/15 03:38:12;;;;;;;6.47;5.70;;;;;;;;;;5092700;28;20043;-54
2023/09/15 03:40:38;;;;;;;6.32;5.55;;;;;;;;;;5069321;28;20123;-53
2023/09/15 03:43:04;;;;;;;6.28;5.35;;;;;;;;;;5032845;28;20169;-52
2023/09/15 03:45:30;;;;;;;6.05;5.25;;;;;;;;;;5092610;28;20621;-54
2023/09/15 03:47:56;;;;;;;7.75;4.97;;;;;;;;;;5092769;28;20027;-54
2023/09/15 03:50:22;;;;;;;11.38;5.68;;;;;;;;;;5092943;28;20061;-54
2023/09/15 03:52:48;;;;;;;7.88;5.28;;;;;;;;;;5092460;28;20024;-54
2023/09/15 03:55:17;;;;;;;6.30;5.38;;;;;;;;;;5092406;28;20119;-53
2023/09/15 03:57:43;;;;;;;7.88;5.82;;;;;;;;;;5072053;28;20075;-53
2023/09/15 04:00:15;;;;;;;7.10;6.05;;;;;;;;;;5092524;28;20120;-51
2023/09/15 04:02:41;;;;;;;6.40;5.50;;;;;;;;;;5092537;28;20082;-51
2023/09/15 04:05:08;;;;;;;7.68;5.82;;;;;;;;;;5092300;28;20028;-53
2023/09/15 04:07:34;;;;;;;5.97;5.38;;;;;;;;;;5092144;28;20020;-52
2023/09/15 04:10:00;;;;;;;5.90;5.30;;;;;;;;;;5092523;28;20020;-53
2023/09/15 04:12:26;;;;;;;6.47;4.75;;;;;;;;;;5090246;28;20020;-54
2023/09/15 04:14:52;;;;;;;10.85;5.93;;;;;;;;;;5092053;28;20115;-52
2023/09/15 04:17:18;;;;;;;8.07;5.88;;;;;;;;;;5091833;28;20051;-52
2023/09/15 04:19:44;;;;;;;8.23;5.47;;;22.10;99.90;;;;;;5092313;28;20074;-53
2023/09/15 04:22:09;;;;;;;6.78;5.13;;;22.00;99.90;;;;;;5058922;28;20052;-54
2023/09/15 04:24:35;;;;;;;6.97;5.05;;;21.90;99.90;;;;;;5046678;28;20085;-52
2023/09/15 04:27:01;;;;;;;8.57;5.05;;;21.80;99.90;;;;;;5048586;28;20043;-54
2023/09/15 04:29:27;;;;;;;13.00;6.00;;;21.80;99.90;;;;;;5091640;28;20016;-53
2023/09/15 04:31:52;;;;;;;9.77;6.03;;;21.80;99.90;;;;;;5091719;28;20150;-52
2023/09/15 04:34:18;;;;;;;14.45;6.53;;;21.70;99.90;;;;;;5091705;28;20028;-54
2023/09/15 04:36:44;;;;;;;6.70;5.90;;;21.70;99.90;;;;;;5091991;28;20020;-54
2023/09/15 04:39:10;;;;;;;10.05;6.35;;;21.80;99.90;;;;;;5053367;28;20072;-53
2023/09/15 04:41:36;;;;;;;7.00;5.32;;;21.70;99.90;;;;;;5028249;28;20590;-52
2023/09/15 04:44:02;;;;;;;11.77;6.47;;;21.70;99.90;;;;;;5029298;28;20061;-54
2023/09/15 04:46:27;;;;;;;8.70;5.88;;;21.70;99.90;;;;;;4988553;28;20034;-51
2023/09/15 04:48:53;;;;;;;6.78;6.03;;;21.70;99.90;;;;;;5000480;28;20033;-52
2023/09/15 04:51:19;;;;;;;6.82;5.63;;;21.70;99.90;;;;;;5028747;28;20069;-52
2023/09/15 04:53:45;;;;;;;8.73;5.90;;;21.70;99.90;;;;;;5029233;28;20038;-53
2023/09/15 04:56:10;;;;;;;8.60;5.90;;;21.60;99.90;;;;;;5029062;28;20037;-54
2023/09/15 04:58:36;;;;;;;11.15;6.80;;;21.50;99.90;;;;;;5028336;28;20034;-52
2023/09/15 05:01:03;;;;;;;6.72;5.43;;;21.50;99.90;;;;;;4996143;28;20053;-54
2023/09/15 05:03:29;;;;;;;10.65;6.15;;;21.50;99.90;;;;;;5028751;28;20033;-53
2023/09/15 05:05:55;;;;;;;12.60;5.88;;;21.60;99.90;;;;;;5029220;28;20107;-54
2023/09/15 05:08:21;;;;;;;9.73;6.05;;;21.70;99.90;;;;;;5028645;28;20064;-52
2023/09/15 05:10:48;;;;;;;6.75;5.80;;;21.50;99.90;;;;;;5024562;28;20024;-53
2023/09/15 05:13:14;;;;;;;10.43;6.70;;;21.50;99.90;;;;;;5074958;28;20089;-53
2023/09/15 05:15:40;;;;;;;8.93;6.82;;;21.60;99.90;;;;;;5085956;28;20035;-55
2023/09/15 05:18:06;;;;;;;11.50;7.45;;;21.50;99.90;;;;;;5087566;28;20024;-52
2023/09/15 05:20:32;;;;;;;15.68;7.80;;;21.50;99.90;;;;;;5086086;28;20484;-55
2023/09/15 05:22:58;;;;;;;8.80;6.93;;;21.70;99.90;;;;;;5054334;28;20098;-54
2023/09/15 05:25:25;;;;;;;10.00;6.88;;;21.70;99.90;;;;;;4991877;28;20044;-53
2023/09/15 05:27:51;;;;;;;7.03;6.32;;;21.70;99.90;;;;;;5070936;28;20536;-52
2023/09/15 05:30:17;;;;;;;9.25;6.18;;;21.90;99.90;;;;;;5070839;28;20070;-53
2023/09/15 05:32:43;;;;;;;10.23;6.82;;;21.90;99.90;;;;;;5079797;28;20482;-53
2023/09/15 05:35:10;;;;;;;8.10;6.32;;;21.90;99.90;;;;;;5041740;28;20123;-53
2023/09/15 05:37:36;;;;;;;8.60;7.10;;;22.00;99.90;;;;;;5047357;28;20098;-51
2023/09/15 05:40:02;;;;;;;7.28;6.38;;;21.80;99.90;;;;;;5047140;28;20033;-55
2023/09/15 05:42:28;;;;;;;15.80;7.68;;;21.70;99.90;;;;;;5057247;28;20072;-53
2023/09/15 05:44:54;;;;;;;8.38;7.35;;;21.70;99.90;;;;;;5048876;28;20475;-55
2023/09/15 05:47:23;;;;;;;15.10;7.38;;;21.80;99.90;;;;;;5096520;28;20107;-53
2023/09/15 05:49:49;;;;;;;9.73;6.97;;;22.00;99.90;;;;;;5096483;28;20097;-51
2023/09/15 05:52:15;;;;;;;8.60;6.80;;;22.10;99.90;;;;;;5061365;28;20463;-54
2023/09/15 05:54:41;;;;;;;7.20;6.32;;;;;;;;;;5011538;28;20487;-52
2023/09/15 05:57:07;;;;;;;8.20;5.90;;;22.30;99.90;;;;;;5096188;28;20028;-55
2023/09/15 05:59:32;;;;;;;7.47;6.38;;;22.30;99.90;;;;;;5096406;28;20164;-52
2023/09/15 06:01:58;;;;;;;7.07;5.78;;;22.10;99.90;;;;;;5096774;28;20115;-52
2023/09/15 06:04:24;;;;;;;8.23;5.50;;;22.00;99.90;;;;;;5096629;28;20425;-52
2023/09/15 06:06:49;;;;;;;6.78;5.88;;;22.00;99.90;;;;;;5096107;28;20024;-52
2023/09/15 06:09:15;;;;;;;5.80;5.05;;;22.00;99.90;;;;;;5096241;28;20115;-56
2023/09/15 06:11:41;;;;;;;9.52;6.05;;;22.10;99.90;;;;;;5096526;28;20028;-55
2023/09/15 06:14:07;;;;;;;9.32;6.10;;;22.00;99.90;;;;;;5096228;28;20066;-56
2023/09/15 06:16:34;;;;;;;7.65;5.40;;;22.20;99.90;;;;;;5095997;28;20020;-54
2023/09/15 06:19:02;;;;;;;7.10;4.97;;;22.50;99.90;;;;;;5096146;28;20426;-51
2023/09/15 06:21:28;;;;;;;4.90;4.40;;;22.60;99.90;;;;;;5095985;28;20052;-55
2023/09/15 06:23:53;;;;;;;5.68;4.43;;;22.60;99.90;;;;;;5096293;28;20055;-54
2023/09/15 06:26:19;;;;;;;6.55;4.70;;;22.70;99.90;;;;;;5060690;28;20173;-52
2023/09/15 06:28:45;;;;;;;6.53;5.10;;;22.80;99.90;;;;;;5095743;28;20055;-53
2023/09/15 06:31:10;;;;;;;6.70;4.60;;;23.00;99.90;;;;;;5060738;28;20040;-54
2023/09/15 06:33:36;;;;;;;7.75;4.57;;;23.30;99.90;;;;;;5095724;28;20081;-56
2023/09/15 06:36:03;;;;;;;11.90;5.85;;;23.30;99.90;;;;;;5060435;28;20046;-57
2023/09/15 06:38:31;;;;;;;8.15;4.97;;;;;;;;;;5060858;28;20119;-55
2023/09/15 06:40:57;;;;;;;6.68;5.10;;;;;;;;;;5095574;28;20501;-54
2023/09/15 06:43:23;;;;;;;4.93;3.63;;;23.90;99.90;;;;;;5095521;28;20435;-54
2023/09/15 06:45:49;;;;;;;8.38;3.90;;;24.00;99.90;;;;;;5076812;28;20044;-51
2023/09/15 06:48:15;;;;;;;5.63;4.15;;;;;;;;;;5095591;28;20115;-53
2023/09/15 06:50:40;;;;;;;6.20;4.03;;;24.60;99.90;;;;;;5072235;28;20032;-54
2023/09/15 06:53:06;;;;;;;7.80;4.63;;;24.70;99.90;;;;;;5095340;28;20043;-52
2023/09/15 06:55:33;;;;;;;4.82;4.05;;;;;;;;;;5095260;28;20032;-55
2023/09/15 06:57:59;;;;;;;4.72;3.78;;;25.30;99.90;;;;;;5095112;28;20086;-56
2023/09/15 07:00:24;;;;;;;4.50;3.40;;;25.60;99.90;;;;;;5095043;28;20028;-55
2023/09/15 07:02:50;;;;;;;4.97;3.20;;;;;;;;;;5095297;28;20024;-52
2023/09/15 07:05:16;;;;;;;4.97;3.50;;;26.00;99.90;;;;;;5095469;28;20024;-51
2023/09/15 07:07:42;;;;;;;7.15;2.80;;;;;;;;;;5095265;28;20391;-54
2023/09/15 07:10:09;;;;;;;8.85;2.97;;;;;;;;;;5094990;28;20024;-52
2023/09/15 07:12:35;;;;;;;6.85;3.08;;;;;;;;;;5076196;28;20048;-56
2023/09/15 07:15:04;;;;;;;4.90;3.20;;;;;;;;;;5095338;28;20034;-53
2023/09/15 07:17:30;;;;;;;5.93;2.83;;;;;;;;;;5043436;28;20082;-52
2023/09/15 07:19:56;;;;;;;4.35;2.38;;;;;;;;;;5094676;28;20040;-53
2023/09/15 07:22:22;;;;;;;2.55;1.60;;;;;;;;;;5094447;28;20079;-54
2023/09/15 07:24:48;;;;;;;2.85;1.73;;;29.30;99.90;;;;;;5059510;28;20150;-51
2023/09/15 07:27:13;;;;;;;3.78;2.05;;;26.70;99.90;;;;;;5095043;28;20051;-55
2023/09/15 07:29:39;;;;;;;3.20;1.83;;;26.90;99.90;;;;;;5059317;28;20118;-54
2023/09/15 07:32:06;;;;;;;5.05;1.90;;;;;;;;;;5094736;28;20543;-52
2023/09/15 07:34:32;;;;;;;3.78;2.03;;;27.50;99.90;;;;;;5094697;28;20028;-51
2023/09/15 07:37:00;;;;;;;4.50;2.08;;;26.90;99.90;;;;;;5094409;28;20085;-55
2023/09/15 07:39:26;;;;;;;3.83;2.00;;;26.80;99.90;;;;;;5094987;28;20040;-53
2023/09/15 07:41:52;;;;;;;2.92;1.88;;;;;;;;;;5094082;28;20135;-56
2023/09/15 07:44:18;;;;;;;4.47;2.00;;;;;;;;;;5075591;28;20048;-53
2023/09/15 07:46:44;;;;;;;2.65;1.50;;;27.90;99.90;;;;;;5094432;28;20028;-56
2023/09/15 07:49:10;;;;;;;2.63;1.80;;;;;;;;;;5058889;28;20070;-55
2023/09/15 07:51:36;;;;;;;2.20;1.60;;;;;;;;;;5094169;28;20036;-55
2023/09/15 07:54:02;;;;;;;5.78;1.70;;;;;;;;;;5094181;28;20036;-53
2023/09/15 07:56:28;;;;;;;1.95;1.48;;;;;;;;;;5094464;28;20032;-53
2023/09/15 07:58:55;;;;;;;1.58;1.48;;;;;;;;;;5093966;28;20085;-51
2023/09/15 08:01:20;;;;;;;1.67;1.50;;;29.60;99.90;;;;;;5093976;28;20398;-50
2023/09/15 08:03:46;;;;;;;1.85;1.40;;;;;;;;;;5094050;28;20119;-54
2023/09/15 08:06:13;;;;;;;2.28;1.70;;;30.00;99.90;;;;;;5093747;28;20379;-51
2023/09/15 08:08:39;;;;;;;2.83;1.55;;;30.10;99.90;;;;;;5094345;28;20360;-53
2023/09/15 08:11:05;;;;;;;4.55;2.00;;;;;;;;;;5094520;28;20020;-56
2023/09/15 08:13:31;;;;;;;3.58;1.60;;;;;;;;;;5093836;28;20028;-56
2023/09/15 08:15:57;;;;;;;3.22;1.48;;;;;;;;;;5093913;28;20036;-53
2023/09/15 08:18:24;;;;;;;4.80;1.52;;;;;;;;;;5093919;28;20032;-56
2023/09/15 08:20:50;;;;;;;2.22;1.60;;;29.80;99.90;;;;;;5057949;28;20048;-56
2023/09/15 08:23:17;;;;;;;3.63;1.90;;;;;;;;;;5093652;28;20483;-52
2023/09/15 08:25:43;;;;;;;2.25;1.90;;;;;;;;;;5093688;28;20035;-54
2023/09/15 08:28:09;;;;;;;3.97;1.65;;;;;;;;;;5093749;28;20040;-55
2023/09/15 08:30:35;;;;;;;2.90;1.50;;;;;;;;;;5093621;28;20020;-51
2023/09/15 08:33:02;;;;;;;2.50;1.90;;;;;;;;;;5058207;28;20060;-54
2023/09/15 08:35:29;;;;;;;4.28;2.28;;;;;;;;;;5093375;28;20036;-55
2023/09/15 08:37:55;;;;;;;4.43;1.77;;;30.90;99.90;;;;;;5066330;28;20040;-55
2023/09/15 08:40:20;;;;;;;4.55;2.08;;;31.00;99.90;;;;;;5080879;28;20546;-55
2023/09/15 08:42:46;;;;;;;3.05;1.77;;;30.80;95.90;;;;;;5076725;28;20546;-56
2023/09/15 08:45:14;;;;;;;2.72;1.50;;;31.10;95.60;;;;;;5070205;28;20060;-55
2023/09/15 08:47:43;;;;;;;1.75;1.40;;;;;;;;;;5066505;28;20090;-55
2023/09/15 08:50:10;;;;;;;2.95;1.60;;;;;;;;;;5080953;28;20177;-53
2023/09/15 08:52:37;;;;;;;1.73;1.48;;;;;;;;;;5059006;28;20040;-50
2023/09/15 08:55:03;;;;;;;2.13;1.60;;;31.80;99.30;;;;;;5072686;28;20102;-52
2023/09/15 08:57:30;;;;;;;1.88;1.33;;;;;;;;;;5079508;28;20025;-55
2023/09/15 08:59:56;;;;;;;2.95;1.80;;;;;;;;;;5079588;28;20024;-53
2023/09/15 09:02:24;;;;;;;1.92;1.40;;;32.60;94.00;;;;;;5079687;28;20387;-53
2023/09/15 09:04:50;;;;;;;3.17;1.90;;;32.90;94.40;;;;;;5072947;28;20032;-53
2023/09/15 09:07:17;;;;;;;1.80;1.50;;;32.00;93.60;;;;;;5082413;28;20384;-54
2023/09/15 09:09:45;;;;;;;2.45;2.03;;;32.30;93.60;;;;;;5086026;28;20033;-52
2023/09/15 09:12:11;;;;;;;3.30;1.95;;;31.80;94.10;;;;;;5079904;28;20395;-52
2023/09/15 09:14:37;;;;;;;3.33;1.70;;;;;;;;;;5073000;28;20108;-53
2023/09/15 09:17:05;;;;;;;6.32;2.08;;;33.30;97.00;;;;;;5050808;28;20041;-53
2023/09/15 09:19:42;;;;;;;2.25;1.73;;;33.10;93.50;;;;;;5076735;28;20036;-53
2023/09/15 09:22:08;;;;;;;4.07;1.75;;;33.40;93.80;;;;;;5085463;28;20084;-52
2023/09/15 09:24:35;;;;;;;2.67;2.05;;;33.00;93.30;;;;;;5073398;28;20036;-53
2023/09/15 09:27:01;;;;;;;2.83;2.35;;;;;;;;;;5041111;28;20048;-52
2023/09/15 09:29:28;;;;;;;4.30;2.20;;;;;;;;;;5076686;28;20025;-52
2023/09/15 09:31:55;;;;;;;3.05;2.45;;;31.20;93.50;;;;;;5084566;28;20035;-52
2023/09/15 09:34:21;;;;;;;2.30;1.80;;;30.70;94.00;;;;;;5076678;28;20367;-52
2023/09/15 09:36:50;;;;;;;5.22;2.53;;;;;;;;;;5076795;28;20032;-52
2023/09/15 09:39:16;;;;;;;3.03;2.17;;;29.50;94.70;;;;;;5076322;28;20025;-52
2023/09/15 09:41:44;;;;;;;2.33;2.10;;;;;;;;;;5076326;28;20679;-51
2023/09/15 09:44:12;;;;;;;4.47;2.40;;;;;;;;;;5075512;28;20047;-52
2023/09/15 09:46:40;;;;;;;3.00;2.47;;;28.60;95.50;;;;;;5076288;28;20119;-51
2023/09/15 09:49:06;;;;;;;4.05;2.10;;;28.60;95.90;;;;;;5075995;28;20112;-52
2023/09/15 09:51:33;;;;;;;5.18;1.70;;;29.50;96.20;;;;;;5076123;28;20059;-52
2023/09/15 09:54:00;;;;;;;4.30;2.47;;;30.30;95.80;;;;;;5077381;28;20044;-52
2023/09/15 09:56:26;;;;;;;2.65;1.85;;;;;;;;;;5070517;28;20452;-52
2023/09/15 09:58:52;;;;;;;2.30;1.70;;;31.20;95.00;;;;;;5055975;28;20063;-51
2023/09/15 10:01:18;;;;;;;4.63;2.28;;;32.70;99.90;;;;;;5055875;28;20045;-51
2023/09/15 10:03:44;;;;;;;1.92;1.50;;;33.20;99.90;;;;;;5037362;28;20044;-52
2023/09/15 10:06:10;;;;;;;4.60;2.53;;;;;;;;;;5056461;28;20029;-52
2023/09/15 10:08:39;;;;;;;2.42;1.85;;;;;;;;;;5056027;28;20040;-52
2023/09/15 10:11:06;;;;;;;3.95;1.90;;;33.70;92.20;;;;;;5055827;28;20036;-52
2023/09/15 10:13:33;;;;;;;2.78;2.00;;;;;;;;;;5056023;28;20066;-52
2023/09/15 10:15:59;;;;;;;2.25;1.92;;;;;;;;;;5055881;28;20487;-52
2023/09/15 10:18:25;;;;;;;3.38;1.80;;;;;;;;;;5020623;28;20041;-52
2023/09/15 10:20:53;;;;;;;3.97;1.80;;;;;;;;;;5058054;28;20072;-52
2023/09/15 10:23:19;;;;;;;2.33;1.80;;;30.80;93.40;;;;;;5095815;28;20600;-52
2023/09/15 10:25:49;;;;;;;2.45;1.70;;;;;;;;;;5095980;28;20042;-52
2023/09/15 10:28:17;;;;;;;3.28;1.77;;;30.90;93.40;;;;;;5060280;28;20493;-52
2023/09/15 10:30:43;;;;;;;5.65;1.95;;;31.50;92.80;;;;;;5095445;28;20036;-52
2023/09/15 10:33:09;;;;;;;2.30;1.60;;;31.30;92.80;;;;;;5082926;28;20357;-52
2023/09/15 10:35:38;;;;;;;3.95;1.70;;;30.70;92.80;;;;;;5064146;28;20498;-52
2023/09/15 10:38:04;;;;;;;3.60;1.98;;;30.60;93.30;;;;;;5077111;28;20460;-52
2023/09/15 10:40:46;;;;;;;4.70;2.55;;;31.30;93.10;;;;;;5075154;28;20036;-51
2023/09/15 10:43:13;;;;;;;2.45;1.60;;;31.90;93.70;;;;;;5039588;28;20052;-52
2023/09/15 10:45:39;;;;;;;3.72;2.10;;;32.30;93.20;;;;;;5075189;28;20414;-51
2023/09/15 10:48:05;;;;;;;3.25;1.88;;;33.00;93.40;;;;;;5073139;28;20032;-53
2023/09/15 10:50:32;;;;;;;3.95;2.13;;;;;;;;;;5075218;28;20487;-51
2023/09/15 10:53:08;;;;;;;9.00;3.20;;;;;;;;;;5075001;28;20036;-52
2023/09/15 10:55:35;;;;;;;3.05;2.03;;;34.10;92.40;;;;;;5075027;28;20043;-52
2023/09/15 10:58:02;;;;;;;3.30;2.08;;;34.40;92.10;;;;;;5074850;28;20028;-51
2023/09/15 11:00:29;;;;;;;5.63;2.05;;;34.90;91.20;;;;;;5019608;28;20044;-52
2023/09/15 11:02:55;;;;;;;2.20;1.90;;;34.80;91.40;;;;;;5075212;28;20036;-51
2023/09/15 11:05:21;;;;;;;3.22;2.13;;;34.70;91.00;;;;;;5056304;28;20041;-52
2023/09/15 11:07:48;;;;;;;2.20;1.73;;;34.70;90.90;;;;;;5074884;28;20081;-52
2023/09/15 11:10:14;;;;;;;5.43;1.90;;;34.60;91.40;;;;;;5074562;28;20040;-52
2023/09/15 11:12:40;;;;;;;4.90;2.42;;;34.60;91.70;;;;;;5074868;28;20028;-52
2023/09/15 11:15:07;;;;;;;2.75;2.30;;;34.60;91.50;;;;;;5074568;28;20040;-51
2023/09/15 11:17:33;;;;;;;2.45;2.03;;;34.60;90.80;;;;;;5075098;28;20075;-51
2023/09/15 11:20:04;;;;;;;4.47;2.47;;;35.10;91.20;;;;;;5039580;28;20056;-52
2023/09/15 11:22:30;;;;;;;2.90;2.08;;;;;;;;;;5074414;28;20735;-52
2023/09/15 11:24:57;;;;;;;6.28;2.10;;;;;;;;;;5074798;28;20025;-52
2023/09/15 11:27:23;;;;;;;3.03;1.83;;;;;;;;;;5074243;28;20043;-52
2023/09/15 11:29:49;;;;;;;3.40;2.17;;;;;;;;;;5074203;28;20029;-52
2023/09/15 11:32:15;;;;;;;3.00;2.47;;;;;;;;;;5074582;28;20028;-52
2023/09/15 11:34:41;;;;;;;3.13;2.72;;;;;;;;;;5074319;28;20116;-52
2023/09/15 11:37:08;;;;;;;4.97;2.20;;;33.20;91.40;;;;;;5074491;28;20090;-52
2023/09/15 11:39:34;;;;;;;2.83;1.98;;;32.40;91.50;;;;;;5074199;28;20032;-52
2023/09/15 11:42:09;;;;;;;5.10;1.95;;;32.30;91.50;;;;;;5073190;28;20131;-52
2023/09/15 11:44:34;;;;;;;3.78;2.30;;;32.60;91.90;;;;;;5074509;28;20035;-52
2023/09/15 11:47:04;;;;;;;3.85;2.05;;;32.70;91.80;;;;;;5074121;28;20028;-51
2023/09/15 11:49:31;;;;;;;5.95;2.30;;;32.40;91.40;;;;;;5070387;28;20043;-52
2023/09/15 11:51:58;;;;;;;5.05;2.47;;;31.60;91.50;;;;;;5073425;28;20079;-52
2023/09/15 11:54:25;;;;;;;3.25;2.22;;;31.60;92.20;;;;;;5073997;28;20029;-50
2023/09/15 11:56:52;;;;;;;2.83;2.22;;;31.80;91.40;;;;;;5066589;28;20365;-52
2023/09/15 11:59:20;;;;;;;2.53;2.05;;;;;;;;;;5036094;28;20507;-51
2023/09/15 12:01:48;;;;;;;6.38;2.58;;;31.60;99.90;;;;;;5037032;28;20044;-51
2023/09/15 12:04:14;;;;;;;39.75;31.25;;;32.00;99.90;;;;;;5072664;28;20032;-51
2023/09/15 12:06:40;;;;;;;4.03;2.38;;;;;;;;;;5072986;28;20028;-51
2023/09/15 12:09:06;;;;;;;2.92;1.90;;;32.90;98.50;;;;;;5073243;28;20032;-51
2023/09/15 12:11:33;;;;;;;2.65;2.00;;;33.20;91.40;;;;;;5073407;28;20068;-51
2023/09/15 12:14:06;;;;;;;6.60;1.90;;;33.00;90.40;;;;;;5073426;28;20029;-51
2023/09/15 12:16:33;;;;;;;2.30;1.88;;;32.00;90.70;;;;;;5073683;28;20068;-51
2023/09/15 12:19:00;;;;;;;3.15;1.80;;;;;;;;;;5073399;28;20055;-51
2023/09/15 12:21:28;;;;;;;3.05;1.60;;;;;;;;;;5083179;28;20047;-51
2023/09/15 12:23:55;;;;;;;2.72;2.05;;;;;;;;;;5114258;28;20036;-51
2023/09/15 12:26:21;;;;;;;3.60;1.90;;;;;;;;;;5114307;28;20034;-52
2023/09/15 12:28:48;;;;;;;7.80;7.05;;;;;;;;;;5114314;28;20432;-51
2023/09/15 12:31:18;;;;;;;6.55;2.65;;;30.40;99.50;;;;;;5114231;28;20034;-51
2023/09/15 12:33:52;;;;;;;2.30;1.80;;;30.30;91.10;;;;;;5113623;28;20028;-51
2023/09/15 12:36:18;;;;;;;2.55;1.90;;;30.50;91.20;;;;;;5114209;28;20089;-51
2023/09/15 12:38:44;;;;;;;2.97;2.10;;;;;;;;;;5113811;28;20114;-51
2023/09/15 12:41:11;;;;;;;5.72;2.08;;;;;;;;;;5113681;28;20039;-51
2023/09/15 12:43:37;;;;;;;2.25;1.60;;;;;;;;;;5113697;28;20058;-51
2023/09/15 12:46:03;;;;;;;7.70;1.77;;;32.70;98.20;;;;;;5113389;28;20471;-51
2023/09/15 12:48:30;;;;;;;3.03;2.13;;;32.60;91.20;;;;;;5113405;28;20512;-51
2023/09/15 12:50:56;;;;;;;5.80;1.80;;;32.10;91.20;;;;;;5113734;28;20040;-52
2023/09/15 12:53:22;;;;;;;5.95;2.00;;;32.50;91.20;;;;;;5113329;28;20126;-51
2023/09/15 12:55:47;;;;;;;4.05;1.52;;;32.50;91.10;;;;;;5098031;28;20024;-53
2023/09/15 12:58:13;;;;;;;5.43;1.90;;;32.80;90.80;;;;;;5091212;28;20020;-51
2023/09/15 13:00:39;;;;;;;1.30;1.20;;;33.30;90.80;;;;;;5090966;28;20471;-51
2023/09/15 13:03:05;;;;;;;2.05;1.60;;;32.70;90.30;;;;;;5090189;28;20091;-52
2023/09/15 13:05:32;;;;;;;3.22;1.80;;;32.50;90.40;;;;;;5088167;28;20455;-54
2023/09/15 13:07:57;;;;;;;3.40;1.67;;;32.60;90.40;;;;;;5089481;28;20490;-54
2023/09/15 13:10:24;;;;;;;6.95;1.75;;;;;;;;;;5085802;28;20028;-54
2023/09/15 13:12:50;;;;;;;3.95;1.50;;;33.10;90.20;;;;;;5087450;28;20035;-55
2023/09/15 13:15:21;;;;;;;4.05;2.13;;;32.70;89.70;;;;;;5085292;28;20026;-54
2023/09/15 13:17:48;;;;;;;3.70;1.60;;;33.00;90.70;;;;;;5089296;28;20072;-55
2023/09/15 13:20:14;;;;;;;2.55;1.65;;;33.20;90.10;;;;;;5072161;28;20043;-54